createdAt,value
2024-02-04T00:02:59.300Z,6.03
2024-02-04T00:06:01.967Z,6.10
2024-02-04T00:09:05.713Z,7.05
2024-02-04T00:12:08.316Z,7.38
2024-02-04T00:15:11.245Z,6.28
2024-02-04T00:18:13.700Z,7.85
2024-02-04T00:21:16.054Z,6.40
2024-02-04T00:24:20.047Z,13.75
2024-02-04T00:27:22.552Z,7.88
2024-02-04T00:30:25.226Z,11.70
2024-02-04T00:33:27.706Z,7.85
2024-02-04T00:36:30.191Z,9.10
2024-02-04T00:39:32.612Z,9.82
2024-02-04T00:42:35.040Z,7.82
2024-02-04T00:45:57.888Z,6.65
2024-02-04T00:49:00.637Z,7.05
2024-02-04T00:52:03.214Z,6.40
2024-02-04T00:55:06.014Z,6.78
2024-02-04T00:58:08.280Z,6.25
2024-02-04T01:01:10.539Z,7.28
2024-02-04T01:04:13.412Z,6.53
2024-02-04T01:07:15.692Z,10.07
2024-02-04T01:10:18.071Z,7.65
2024-02-04T01:13:20.424Z,6.45
2024-02-04T01:16:22.756Z,6.13
2024-02-04T01:19:25.138Z,9.60
2024-02-04T01:22:28.450Z,8.65
2024-02-04T01:25:30.544Z,10.45
2024-02-04T01:28:33.316Z,10.55
2024-02-04T01:31:35.783Z,9.43
2024-02-04T01:34:38.264Z,10.02
2024-02-04T01:37:40.644Z,9.70
2024-02-04T01:40:43.109Z,8.55
2024-02-04T01:43:45.461Z,7.95
2024-02-04T01:46:47.795Z,7.32
2024-02-04T01:52:53.768Z,7.50
2024-02-04T01:55:57.063Z,8.02
2024-02-04T01:59:00.748Z,7.63
2024-02-04T02:02:03.064Z,7.47
2024-02-04T02:05:06.276Z,7.30
2024-02-04T02:08:08.990Z,7.13
2024-02-04T02:11:41.418Z,6.85
2024-02-04T02:14:47.801Z,6.68
2024-02-04T02:18:03.323Z,6.85
2024-02-04T02:21:22.298Z,7.05
2024-02-04T02:24:24.684Z,7.57
2024-02-04T02:27:27.557Z,7.63
2024-02-04T02:30:29.969Z,7.32
2024-02-04T02:33:32.326Z,7.57
2024-02-04T02:36:47.152Z,7.20
2024-02-04T02:40:13.952Z,7.28
2024-02-04T02:43:17.182Z,7.40
2024-02-04T02:46:20.967Z,7.28
2024-02-04T02:49:23.107Z,8.15
2024-02-04T02:52:25.562Z,8.00
2024-02-04T02:55:27.717Z,7.95
2024-02-04T02:58:29.805Z,8.30
2024-02-04T03:01:32.477Z,8.45
2024-02-04T03:04:35.092Z,8.82
2024-02-04T03:07:37.259Z,7.88
2024-02-04T03:10:39.305Z,8.48
2024-02-04T03:13:41.685Z,8.95
2024-02-04T03:16:47.029Z,8.18
2024-02-04T03:19:50.201Z,7.45
2024-02-04T03:22:52.674Z,8.25
2024-02-04T03:25:54.779Z,8.38
2024-02-04T03:28:56.905Z,9.20
2024-02-04T03:31:59.093Z,8.48
2024-02-04T03:35:02.411Z,8.05
2024-02-04T03:38:05.005Z,9.68
2024-02-04T03:41:08.478Z,10.73
2024-02-04T03:44:10.773Z,9.75
2024-02-04T03:47:12.870Z,10.60
2024-02-04T03:50:15.287Z,10.68
2024-02-04T03:53:17.368Z,11.13
2024-02-04T03:56:19.831Z,10.93
2024-02-04T03:59:22.154Z,9.13
2024-02-04T04:02:24.514Z,8.32
2024-02-04T04:05:27.744Z,9.20
2024-02-04T04:08:29.964Z,10.10
2024-02-04T04:11:33.445Z,10.50
2024-02-04T04:14:35.705Z,8.60
2024-02-04T04:17:38.087Z,8.52
2024-02-04T04:20:41.005Z,8.57
2024-02-04T04:23:43.106Z,8.77
2024-02-04T04:26:45.158Z,8.70
2024-02-04T04:29:47.270Z,9.20
2024-02-04T04:32:49.877Z,8.07
2024-02-04T04:35:52.067Z,7.60
2024-02-04T04:38:54.078Z,7.43
2024-02-04T04:41:56.395Z,7.20
2024-02-04T04:44:58.778Z,8.30
2024-02-04T04:48:01.347Z,7.50
2024-02-04T04:51:03.783Z,7.55
2024-02-04T04:54:06.110Z,10.68
2024-02-04T04:57:08.144Z,7.75
2024-02-04T05:00:12.118Z,8.05
2024-02-04T05:03:14.513Z,9.32
2024-02-04T05:06:16.583Z,9.80
2024-02-04T05:09:18.715Z,10.30
2024-02-04T05:12:21.124Z,12.27
2024-02-04T05:15:23.514Z,11.80
2024-02-04T05:18:28.253Z,12.07
2024-02-04T05:21:30.784Z,13.77
2024-02-04T05:24:33.092Z,13.27
2024-02-04T05:27:36.125Z,13.77
2024-02-04T05:30:39.404Z,12.73
2024-02-04T05:33:41.931Z,13.10
2024-02-04T05:36:44.332Z,12.95
2024-02-04T05:39:46.461Z,11.43
2024-02-04T05:42:48.676Z,10.80
2024-02-04T05:45:51.182Z,11.85
2024-02-04T05:48:53.682Z,13.05
2024-02-04T05:51:55.994Z,12.35
2024-02-04T05:55:00.028Z,10.52
2024-02-04T05:58:04.755Z,8.73
2024-02-04T06:01:07.227Z,8.57
2024-02-04T06:04:09.688Z,9.15
2024-02-04T06:07:11.848Z,8.23
2024-02-04T06:10:14.019Z,8.55
2024-02-04T06:13:16.434Z,8.43
2024-02-04T06:16:18.798Z,8.85
2024-02-04T06:19:20.958Z,9.23
2024-02-04T06:22:23.412Z,8.60
2024-02-04T06:25:25.851Z,11.27
2024-02-04T06:28:28.275Z,11.00
2024-02-04T06:31:30.344Z,12.60
2024-02-04T06:34:32.471Z,19.67
2024-02-04T06:37:34.779Z,18.13
2024-02-04T06:40:37.099Z,10.75
2024-02-04T06:43:39.611Z,9.88
2024-02-04T06:46:42.026Z,9.73
2024-02-04T06:49:47.604Z,9.07
2024-02-04T06:52:50.073Z,9.75
2024-02-04T06:55:52.504Z,10.02
2024-02-04T06:58:54.566Z,9.63
2024-02-04T07:01:57.018Z,10.52
2024-02-04T07:04:59.220Z,12.07
2024-02-04T07:08:01.607Z,9.45
2024-02-04T07:11:04.675Z,10.32
2024-02-04T07:14:07.505Z,12.63
2024-02-04T07:17:09.589Z,13.23
2024-02-04T07:20:11.998Z,13.95
2024-02-04T07:23:14.124Z,14.07
2024-02-04T07:26:16.253Z,14.65
2024-02-04T07:29:18.626Z,17.65
2024-02-04T07:32:20.635Z,22.80
2024-02-04T07:35:23.186Z,24.23
2024-02-04T07:38:25.292Z,26.48
2024-02-04T07:41:27.895Z,31.65
2024-02-04T07:44:30.782Z,36.60
2024-02-04T07:47:32.916Z,36.90
2024-02-04T07:50:35.242Z,37.30
2024-02-04T07:53:37.587Z,35.10
2024-02-04T07:56:39.678Z,36.17
2024-02-04T07:59:42.014Z,34.72
2024-02-04T08:02:46.514Z,32.50
2024-02-04T08:05:48.898Z,34.05
2024-02-04T08:08:52.085Z,31.02
2024-02-04T08:11:55.961Z,29.63
2024-02-04T08:14:59.435Z,31.35
2024-02-04T08:18:03.538Z,39.05
2024-02-04T08:21:09.407Z,33.65
2024-02-04T08:24:11.668Z,39.25
2024-02-04T08:27:17.187Z,38.17
2024-02-04T08:30:20.060Z,36.65
2024-02-04T08:33:22.591Z,38.75
2024-02-04T08:36:25.215Z,46.67
2024-02-04T08:39:28.019Z,51.50
2024-02-04T08:42:30.328Z,29.20
2024-02-04T08:45:32.692Z,29.45
2024-02-04T08:48:34.858Z,28.15
2024-02-04T08:51:37.337Z,29.08
2024-02-04T08:54:39.804Z,29.77
2024-02-04T08:57:42.054Z,30.95
2024-02-04T09:00:44.510Z,35.00
2024-02-04T09:03:46.698Z,32.15
2024-02-04T09:06:49.310Z,30.90
2024-02-04T09:09:51.454Z,30.75
2024-02-04T09:12:53.839Z,29.77
2024-02-04T09:15:56.116Z,33.35
2024-02-04T09:18:58.366Z,30.33
2024-02-04T09:22:02.622Z,30.65
2024-02-04T09:25:05.278Z,30.42
2024-02-04T09:28:07.779Z,28.38
2024-02-04T09:31:10.926Z,29.88
2024-02-04T09:34:13.819Z,32.25
2024-02-04T09:37:17.514Z,35.03
2024-02-04T09:40:23.493Z,30.95
2024-02-04T09:43:26.491Z,30.88
2024-02-04T09:46:29.157Z,29.75
2024-02-04T09:49:32.789Z,30.38
2024-02-04T09:52:39.098Z,29.80
2024-02-04T09:55:43.114Z,29.95
2024-02-04T09:58:46.808Z,34.47
2024-02-04T10:01:49.797Z,30.90
2024-02-04T10:04:52.631Z,29.73
2024-02-04T10:07:55.422Z,30.70
2024-02-04T10:11:01.869Z,28.02
2024-02-04T10:14:04.280Z,28.55
2024-02-04T10:17:06.586Z,29.13
2024-02-04T10:20:11.997Z,29.50
2024-02-04T10:23:14.616Z,28.83
2024-02-04T10:26:17.882Z,29.92
2024-02-04T10:29:20.304Z,29.88
2024-02-04T10:32:25.703Z,28.85
2024-02-04T10:35:28.635Z,29.05
2024-02-04T10:38:32.011Z,26.88
2024-02-04T10:41:35.818Z,26.15
2024-02-04T10:44:38.668Z,24.70
2024-02-04T10:47:42.055Z,24.27
2024-02-04T10:50:47.984Z,25.33
2024-02-04T10:53:52.480Z,24.92
2024-02-04T10:57:02.492Z,24.30
2024-02-04T11:00:10.391Z,23.80
2024-02-04T11:03:13.773Z,24.42
2024-02-04T11:06:16.269Z,25.55
2024-02-04T11:09:19.989Z,25.30
2024-02-04T11:12:24.052Z,25.83
2024-02-04T11:15:31.774Z,24.27
2024-02-04T11:18:51.253Z,24.80
2024-02-04T11:21:59.527Z,24.55
2024-02-04T11:25:29.730Z,24.67
2024-02-04T11:28:33.234Z,24.88
2024-02-04T11:31:35.539Z,25.63
2024-02-04T11:34:37.938Z,25.83
2024-02-04T11:37:43.737Z,25.55
2024-02-04T11:40:47.468Z,26.17
2024-02-04T11:43:57.338Z,25.23
2024-02-04T11:47:01.923Z,24.65
2024-02-04T11:50:05.043Z,25.20
2024-02-04T11:53:13.320Z,25.48
2024-02-04T11:56:15.765Z,25.63
2024-02-04T11:59:19.193Z,27.40
2024-02-04T12:02:21.916Z,30.40
2024-02-04T12:05:24.119Z,30.15
2024-02-04T12:08:28.758Z,28.88
2024-02-04T12:11:31.395Z,28.73
2024-02-04T12:14:40.123Z,28.83
2024-02-04T12:17:42.849Z,26.92
2024-02-04T12:20:44.974Z,26.38
2024-02-04T12:23:47.625Z,25.35
2024-02-04T12:26:49.824Z,23.85
2024-02-04T12:29:53.658Z,22.55
2024-02-04T12:33:03.045Z,21.75
2024-02-04T12:36:05.406Z,22.33
2024-02-04T12:39:11.134Z,21.10
2024-02-04T12:42:21.157Z,21.67
2024-02-04T12:45:27.854Z,21.88
2024-02-04T12:48:30.387Z,20.63
2024-02-04T12:51:38.986Z,21.45
2024-02-04T12:54:45.269Z,21.30
2024-02-04T12:57:47.318Z,20.73
2024-02-04T13:00:49.675Z,19.40
2024-02-04T13:03:52.168Z,18.75
2024-02-04T13:06:54.436Z,18.63
2024-02-04T13:10:03.254Z,18.83
2024-02-04T13:13:11.970Z,18.15
2024-02-04T13:16:14.593Z,19.35
2024-02-04T13:19:17.109Z,18.67
2024-02-04T13:22:19.549Z,17.30
2024-02-04T13:25:26.054Z,15.15
2024-02-04T13:28:29.232Z,16.17
2024-02-04T13:31:32.740Z,16.65
2024-02-04T13:34:35.082Z,19.42
2024-02-04T13:37:39.983Z,19.27
2024-02-04T13:40:42.160Z,17.10
2024-02-04T13:43:45.178Z,17.73
2024-02-04T13:46:47.195Z,17.52
2024-02-04T13:49:49.779Z,18.08
2024-02-04T13:52:52.232Z,18.13
2024-02-04T13:55:56.844Z,18.25
2024-02-04T13:59:00.971Z,18.45
2024-02-04T14:02:04.071Z,20.80
2024-02-04T14:05:07.289Z,20.15
2024-02-04T14:08:10.438Z,21.17
2024-02-04T14:11:12.556Z,21.42
2024-02-04T14:14:15.100Z,20.58
2024-02-04T14:17:17.562Z,20.48
2024-02-04T14:20:19.691Z,20.35
2024-02-04T14:23:21.782Z,19.23
2024-02-04T14:26:24.182Z,20.30
2024-02-04T14:29:30.306Z,20.00
2024-02-04T14:32:32.491Z,22.52
2024-02-04T14:35:34.738Z,20.83
2024-02-04T14:38:39.960Z,22.08
2024-02-04T14:41:42.824Z,24.77
2024-02-04T14:44:45.536Z,27.08
2024-02-04T14:47:47.739Z,23.00
2024-02-04T14:50:50.525Z,23.02
2024-02-04T14:53:52.638Z,23.55
2024-02-04T14:56:54.732Z,24.50
2024-02-04T14:59:56.951Z,25.10
2024-02-04T15:03:06.524Z,24.67
2024-02-04T15:06:08.976Z,23.90
2024-02-04T15:09:11.264Z,24.63
2024-02-04T15:12:15.661Z,24.30
2024-02-04T15:15:18.310Z,25.15
2024-02-04T15:18:20.954Z,24.02
2024-02-04T15:21:25.450Z,38.05
2024-02-04T15:24:28.055Z,24.23
2024-02-04T15:27:30.568Z,40.50
2024-02-04T15:30:33.025Z,22.98
2024-02-04T15:33:36.112Z,25.10
2024-02-04T15:36:38.563Z,21.67
2024-02-04T15:39:41.180Z,21.75
2024-02-04T15:42:43.876Z,22.13
2024-02-04T15:45:47.859Z,20.55
2024-02-04T15:48:53.636Z,20.05
2024-02-04T15:51:56.010Z,19.77
2024-02-04T15:54:58.746Z,19.35
2024-02-04T15:58:04.455Z,21.15
2024-02-04T16:01:17.009Z,22.27
2024-02-04T16:04:20.086Z,24.13
2024-02-04T16:07:27.546Z,22.02
2024-02-04T16:10:30.422Z,37.75
2024-02-04T16:13:34.817Z,29.30
2024-02-04T16:16:42.459Z,27.25
2024-02-04T16:19:46.361Z,22.40
2024-02-04T16:22:49.953Z,48.65
2024-02-04T16:25:52.976Z,34.03
2024-02-04T16:28:55.192Z,23.13
2024-02-04T16:31:57.922Z,26.65
2024-02-04T16:35:00.913Z,22.73
2024-02-04T16:38:04.714Z,22.17
2024-02-04T16:41:09.010Z,22.23
2024-02-04T16:44:15.245Z,21.80
2024-02-04T16:47:17.489Z,26.33
2024-02-04T16:50:19.913Z,26.27
2024-02-04T16:53:22.402Z,24.65
2024-02-04T16:56:25.095Z,24.10
2024-02-04T16:59:27.548Z,21.30
2024-02-04T17:02:29.690Z,20.58
2024-02-04T17:05:42.084Z,23.98
2024-02-04T17:08:53.846Z,24.70
2024-02-04T17:11:58.787Z,24.10
2024-02-04T17:15:02.094Z,26.02
2024-02-04T17:18:09.520Z,30.83
2024-02-04T17:21:12.281Z,26.85
2024-02-04T17:24:27.266Z,29.52
2024-02-04T17:27:32.414Z,40.50
2024-02-04T17:30:35.302Z,27.52
2024-02-04T17:33:37.783Z,31.50
2024-02-04T17:36:41.208Z,28.92
2024-02-04T17:39:43.995Z,29.48
2024-02-04T17:42:46.705Z,23.50
2024-02-04T17:45:49.412Z,25.98
2024-02-04T17:48:52.448Z,23.33
2024-02-04T17:51:55.853Z,22.45
2024-02-04T17:54:59.636Z,33.30
2024-02-04T17:58:04.947Z,21.92
2024-02-04T18:01:07.829Z,19.73
2024-02-04T18:04:10.598Z,20.05
2024-02-04T18:07:13.481Z,26.08
2024-02-04T18:10:16.208Z,29.35
2024-02-04T18:13:19.013Z,23.50
2024-02-04T18:16:23.701Z,25.55
2024-02-04T18:19:26.038Z,26.75
2024-02-04T18:22:28.251Z,27.02
2024-02-04T18:25:30.369Z,25.02
2024-02-04T18:28:33.352Z,23.70
2024-02-04T18:31:35.488Z,25.00
2024-02-04T18:34:37.769Z,28.27
2024-02-04T18:37:40.333Z,29.25
2024-02-04T18:40:42.508Z,33.95
2024-02-04T18:43:46.237Z,31.25
2024-02-04T18:46:49.342Z,28.25
2024-02-04T18:49:56.016Z,22.00
2024-02-04T18:52:58.866Z,29.77
2024-02-04T18:56:04.361Z,27.58
2024-02-04T18:59:07.102Z,23.90
2024-02-04T19:02:09.720Z,24.48
2024-02-04T19:05:12.618Z,23.95
2024-02-04T19:08:15.626Z,22.88
2024-02-04T19:11:17.804Z,20.83
2024-02-04T19:14:22.463Z,20.65
2024-02-04T19:17:25.329Z,20.92
2024-02-04T19:20:27.737Z,24.30
2024-02-04T19:23:30.332Z,22.80
2024-02-04T19:26:34.353Z,22.85
2024-02-04T19:29:37.100Z,22.52
2024-02-04T19:32:39.872Z,20.55
2024-02-04T19:35:42.060Z,20.60
2024-02-04T19:38:44.385Z,22.15
2024-02-04T19:41:46.820Z,22.40
2024-02-04T19:44:49.495Z,18.55
2024-02-04T19:47:52.249Z,18.35
2024-02-04T19:50:55.030Z,19.67
2024-02-04T19:53:57.695Z,19.85
2024-02-04T19:56:59.846Z,19.77
2024-02-04T20:00:02.500Z,23.15
2024-02-04T20:03:07.361Z,21.42
2024-02-04T20:06:11.142Z,18.40
2024-02-04T20:09:15.252Z,25.77
2024-02-04T20:12:18.377Z,25.80
2024-02-04T20:15:25.633Z,22.75
2024-02-04T20:18:27.883Z,22.77
2024-02-04T20:21:30.211Z,21.90
2024-02-04T20:24:32.793Z,22.23
2024-02-04T20:27:36.832Z,21.83
2024-02-04T20:30:39.065Z,23.98
2024-02-04T20:33:44.532Z,24.02
2024-02-04T20:36:47.147Z,26.50
2024-02-04T20:39:49.500Z,25.35
2024-02-04T20:42:52.963Z,28.77
2024-02-04T20:45:56.012Z,25.95
2024-02-04T20:48:58.845Z,26.58
2024-02-04T20:52:01.360Z,28.67
2024-02-04T20:55:03.838Z,27.77
2024-02-04T20:58:06.232Z,28.58
2024-02-04T21:01:08.607Z,28.13
2024-02-04T21:04:10.850Z,27.85
2024-02-04T21:07:13.371Z,26.63
2024-02-04T21:10:16.003Z,26.48
2024-02-04T21:13:18.636Z,26.40
2024-02-04T21:16:21.234Z,27.67
2024-02-04T21:19:24.230Z,24.95
2024-02-04T21:22:27.092Z,25.10
2024-02-04T21:25:29.349Z,24.05
2024-02-04T21:28:32.150Z,24.77
2024-02-04T21:31:34.488Z,23.15
2024-02-04T21:34:36.723Z,23.75
2024-02-04T21:37:39.966Z,23.45
2024-02-04T21:40:44.469Z,25.08
2024-02-04T21:43:46.593Z,24.02
2024-02-04T21:46:49.445Z,24.15
2024-02-04T21:49:51.854Z,26.45
2024-02-04T21:52:53.899Z,25.65
2024-02-04T21:55:56.759Z,25.73
2024-02-04T21:58:59.126Z,23.70
2024-02-04T22:02:01.610Z,25.85
2024-02-04T22:05:04.302Z,24.33
2024-02-04T22:08:07.798Z,24.23
2024-02-04T22:11:10.174Z,24.48
2024-02-04T22:14:12.595Z,24.85
2024-02-04T22:17:14.917Z,23.13
2024-02-04T22:20:17.460Z,24.65
2024-02-04T22:23:19.914Z,24.50
2024-02-04T22:26:22.294Z,22.15
2024-02-04T22:29:24.374Z,20.52
2024-02-04T22:32:26.839Z,21.95
2024-02-04T22:35:29.329Z,22.40
2024-02-04T22:38:31.461Z,24.45
2024-02-04T22:41:33.669Z,24.40
2024-02-04T22:44:35.720Z,26.02
2024-02-04T22:47:38.558Z,25.17
2024-02-04T22:50:41.950Z,25.00
2024-02-04T22:53:44.370Z,27.48
2024-02-04T22:56:46.941Z,23.30
2024-02-04T22:59:48.974Z,24.75
2024-02-04T23:02:50.988Z,31.65
2024-02-04T23:05:53.343Z,26.70
2024-02-04T23:08:56.109Z,25.05
2024-02-04T23:11:59.482Z,23.38
2024-02-04T23:15:01.874Z,23.23
2024-02-04T23:18:04.897Z,41.28
2024-02-04T23:21:07.837Z,31.60
2024-02-04T23:24:10.259Z,22.55
2024-02-04T23:27:12.601Z,28.75
2024-02-04T23:30:15.097Z,27.95
2024-02-04T23:33:17.541Z,35.30
2024-02-04T23:36:19.976Z,26.73
2024-02-04T23:39:22.675Z,29.15
2024-02-04T23:42:24.766Z,24.17
2024-02-04T23:45:27.728Z,24.13
2024-02-04T23:48:30.183Z,57.50
2024-02-04T23:51:32.562Z,40.08
2024-02-04T23:54:35.507Z,30.48
2024-02-04T23:57:38.305Z,30.70
